createdAt,value
2023-03-27T00:02:11.528Z,101360.84
2023-03-27T00:04:57.952Z,101373.00
2023-03-27T00:07:48.428Z,101379.25
2023-03-27T00:10:35.099Z,101369.34
2023-03-27T00:13:21.548Z,101366.44
2023-03-27T00:16:09.715Z,101363.63
2023-03-27T00:18:56.762Z,101375.34
2023-03-27T00:21:44.942Z,101371.97
2023-03-27T00:24:34.443Z,101380.31
2023-03-27T00:27:20.879Z,101383.31
2023-03-27T00:30:09.065Z,101390.09
2023-03-27T00:32:56.411Z,101392.78
2023-03-27T00:35:46.582Z,101397.56
2023-03-27T00:38:33.829Z,101403.09
2023-03-27T00:41:21.869Z,101406.34
2023-03-27T00:44:23.770Z,101405.78
2023-03-27T00:47:12.804Z,101403.06
2023-03-27T00:50:02.865Z,101414.34
2023-03-27T00:52:54.117Z,101418.19
2023-03-27T00:55:44.585Z,101428.47
2023-03-27T00:58:37.489Z,101425.34
2023-03-27T01:01:26.079Z,101426.72
2023-03-27T01:04:12.819Z,101431.56
2023-03-27T01:07:00.786Z,101440.19
2023-03-27T01:09:47.409Z,101445.69
2023-03-27T01:12:40.849Z,101458.50
2023-03-27T01:15:38.646Z,101449.06
2023-03-27T01:18:37.630Z,101465.28
2023-03-27T01:21:47.818Z,101468.34
2023-03-27T01:25:02.544Z,101474.53
2023-03-27T01:28:13.161Z,101469.16
2023-03-27T01:31:16.613Z,101477.41
2023-03-27T01:34:30.468Z,101476.81
2023-03-27T01:37:41.281Z,101484.72
2023-03-27T01:40:33.745Z,101474.56
2023-03-27T01:43:27.949Z,101479.53
2023-03-27T01:46:19.364Z,101484.19
2023-03-27T01:49:11.135Z,101488.50
2023-03-27T01:52:00.958Z,101489.03
2023-03-27T01:54:54.844Z,101489.28
2023-03-27T01:57:50.388Z,101487.66
2023-03-27T02:00:51.878Z,101491.56
2023-03-27T02:03:44.981Z,101496.03
2023-03-27T02:06:34.941Z,101490.47
2023-03-27T02:09:25.593Z,101496.34
2023-03-27T02:12:15.334Z,101506.16
2023-03-27T02:15:23.923Z,101518.41
2023-03-27T02:18:20.032Z,101523.25
2023-03-27T02:21:07.132Z,101525.34
2023-03-27T02:23:53.524Z,101523.63
2023-03-27T02:26:40.422Z,101531.56
2023-03-27T02:29:44.470Z,101539.13
2023-03-27T02:32:44.638Z,101530.22
2023-03-27T02:35:39.234Z,101532.22
2023-03-27T02:38:33.509Z,101548.84
2023-03-27T02:41:26.171Z,101549.56
2023-03-27T02:44:34.587Z,101557.03
2023-03-27T02:47:42.364Z,101553.56
2023-03-27T02:50:33.137Z,101561.94
2023-03-27T02:53:31.877Z,101554.75
2023-03-27T02:56:19.934Z,101556.00
2023-03-27T02:59:09.961Z,101555.78
2023-03-27T03:01:59.303Z,101561.00
2023-03-27T03:04:57.715Z,101564.41
2023-03-27T03:07:54.231Z,101564.03
2023-03-27T03:10:45.941Z,101562.94
2023-03-27T03:13:33.241Z,101576.22
2023-03-27T03:16:19.406Z,101570.75
2023-03-27T03:19:05.990Z,101568.09
2023-03-27T03:21:53.469Z,101585.25
2023-03-27T03:24:41.757Z,101586.91
2023-03-27T03:27:29.208Z,101585.13
2023-03-27T03:30:30.432Z,101593.75
2023-03-27T03:33:22.998Z,101600.44
2023-03-27T03:36:14.819Z,101605.53
2023-03-27T03:39:04.196Z,101613.34
2023-03-27T03:41:50.676Z,101610.28
2023-03-27T03:44:38.400Z,101621.13
2023-03-27T03:47:35.928Z,101617.72
2023-03-27T03:50:22.628Z,101621.97
2023-03-27T03:53:09.251Z,101637.53
2023-03-27T03:55:57.569Z,101628.66
2023-03-27T03:58:44.839Z,101626.81
2023-03-27T04:01:31.388Z,101629.72
2023-03-27T04:04:21.033Z,101637.53
2023-03-27T04:07:31.457Z,101638.88
2023-03-27T04:10:33.570Z,101643.53
2023-03-27T04:13:25.059Z,101648.72
2023-03-27T04:16:17.645Z,101644.47
2023-03-27T04:19:08.406Z,101648.22
2023-03-27T04:21:58.188Z,101651.28
2023-03-27T04:24:50.460Z,101662.25
2023-03-27T04:27:39.055Z,101655.34
2023-03-27T04:30:36.957Z,101675.25
2023-03-27T04:33:46.822Z,101671.28
2023-03-27T04:36:53.011Z,101670.66
2023-03-27T04:39:44.521Z,101681.38
2023-03-27T04:42:32.055Z,101692.44
2023-03-27T04:45:20.417Z,101693.88
2023-03-27T04:48:11.003Z,101694.84
2023-03-27T04:50:57.860Z,101694.50
2023-03-27T04:53:56.300Z,101705.84
2023-03-27T04:56:42.741Z,101711.09
2023-03-27T04:59:31.958Z,101709.91
2023-03-27T05:02:45.340Z,101707.47
2023-03-27T05:05:55.930Z,101713.78
2023-03-27T05:08:45.815Z,101727.41
2023-03-27T05:11:46.788Z,101725.00
2023-03-27T05:14:34.749Z,101735.69
2023-03-27T05:17:28.097Z,101744.06
2023-03-27T05:20:21.002Z,101747.28
2023-03-27T05:23:12.843Z,101743.22
2023-03-27T05:26:01.015Z,101752.38
2023-03-27T05:29:05.738Z,101752.13
2023-03-27T05:31:54.302Z,101755.78
2023-03-27T05:34:57.113Z,101759.03
2023-03-27T05:37:47.883Z,101758.69
2023-03-27T05:40:44.212Z,101760.13
2023-03-27T05:43:35.861Z,101762.31
2023-03-27T05:46:22.992Z,101761.25
2023-03-27T05:49:19.088Z,101761.97
2023-03-27T05:52:17.614Z,101771.41
2023-03-27T05:55:09.590Z,101759.25
2023-03-27T05:57:59.929Z,101772.00
2023-03-27T06:00:47.002Z,101778.03
2023-03-27T06:03:38.918Z,101772.63
2023-03-27T06:06:33.695Z,101767.66
2023-03-27T06:09:20.040Z,101775.88
2023-03-27T06:12:26.311Z,101779.34
2023-03-27T06:15:22.717Z,101776.97
2023-03-27T06:18:32.185Z,101782.72
2023-03-27T06:21:18.963Z,101796.84
2023-03-27T06:24:06.199Z,101797.13
2023-03-27T06:26:52.972Z,101798.47
2023-03-27T06:29:40.475Z,101807.44
2023-03-27T06:32:28.872Z,101800.25
2023-03-27T06:35:16.676Z,101810.88
2023-03-27T06:38:20.923Z,101818.91
2023-03-27T06:41:07.490Z,101821.81
2023-03-27T06:44:25.837Z,101818.44
2023-03-27T06:47:26.243Z,101817.00
2023-03-27T06:50:37.911Z,101830.44
2023-03-27T06:53:27.754Z,101851.50
2023-03-27T06:56:15.706Z,101853.09
2023-03-27T06:59:28.445Z,101860.34
2023-03-27T07:02:19.268Z,101849.25
2023-03-27T07:05:36.742Z,101853.91
2023-03-27T07:08:25.512Z,101852.50
2023-03-27T07:11:15.226Z,101854.59
2023-03-27T07:14:08.533Z,101859.53
2023-03-27T07:16:55.208Z,101868.38
2023-03-27T07:19:44.414Z,101871.22
2023-03-27T07:22:43.726Z,101875.56
2023-03-27T07:25:42.896Z,101879.41
2023-03-27T07:28:38.456Z,101878.22
2023-03-27T07:31:54.944Z,101888.09
2023-03-27T07:34:48.653Z,101891.63
2023-03-27T07:37:45.101Z,101894.22
2023-03-27T07:40:53.050Z,101902.25
2023-03-27T07:44:00.674Z,101909.56
2023-03-27T07:47:00.314Z,101904.63
2023-03-27T07:49:46.395Z,101911.00
2023-03-27T07:52:36.734Z,101924.66
2023-03-27T07:55:29.568Z,101930.63
2023-03-27T07:58:23.816Z,101931.78
2023-03-27T08:01:11.669Z,101942.38
2023-03-27T08:03:59.484Z,101941.47
2023-03-27T08:06:47.002Z,101946.28
2023-03-27T08:09:39.602Z,101951.84
2023-03-27T08:12:26.593Z,101962.97
2023-03-27T08:15:21.361Z,101974.94
2023-03-27T08:18:09.039Z,101984.47
2023-03-27T08:20:57.122Z,101969.28
2023-03-27T08:23:44.462Z,101971.16
2023-03-27T08:26:50.277Z,101958.75
2023-03-27T08:29:37.250Z,101978.06
2023-03-27T08:32:25.342Z,101986.28
2023-03-27T08:35:14.543Z,101986.41
2023-03-27T08:38:01.814Z,101990.56
2023-03-27T08:41:09.118Z,101985.06
2023-03-27T08:44:04.005Z,101998.84
2023-03-27T08:46:54.525Z,102006.63
2023-03-27T08:49:46.940Z,102009.50
2023-03-27T08:52:46.635Z,102015.06
2023-03-27T08:55:42.363Z,102021.91
2023-03-27T08:58:36.085Z,102025.81
2023-03-27T09:01:41.548Z,102038.00
2023-03-27T09:04:42.544Z,102070.25
2023-03-27T09:07:37.754Z,102079.47
2023-03-27T09:10:44.707Z,102083.88
2023-03-27T09:13:49.125Z,102087.00
2023-03-27T09:16:40.932Z,102088.16
2023-03-27T09:19:36.272Z,102091.56
2023-03-27T09:22:26.554Z,102108.88
2023-03-27T09:25:28.283Z,102108.19
2023-03-27T09:28:42.418Z,102106.16
2023-03-27T09:31:32.147Z,102107.88
2023-03-27T09:34:25.244Z,102107.56
2023-03-27T09:37:14.452Z,102113.19
2023-03-27T09:40:07.438Z,102150.47
2023-03-27T09:42:55.604Z,102150.38
2023-03-27T09:45:43.362Z,102117.28
2023-03-27T09:48:36.918Z,102103.72
2023-03-27T09:51:41.706Z,102108.66
2023-03-27T09:54:52.300Z,102085.97
2023-03-27T09:57:40.288Z,102067.03
2023-03-27T10:00:31.793Z,102059.63
2023-03-27T10:03:20.480Z,102060.22
2023-03-27T10:06:16.504Z,102058.31
2023-03-27T10:09:22.755Z,102056.00
2023-03-27T10:12:18.662Z,102062.72
2023-03-27T10:15:23.998Z,102047.81
2023-03-27T10:18:27.072Z,102048.19
2023-03-27T10:21:29.868Z,102051.53
2023-03-27T10:24:29.980Z,102049.22
2023-03-27T10:27:43.213Z,102046.78
2023-03-27T10:30:59.926Z,102057.88
2023-03-27T10:33:55.358Z,102057.44
2023-03-27T10:37:20.443Z,102058.03
2023-03-27T10:40:18.835Z,102060.75
2023-03-27T10:43:12.829Z,102069.38
2023-03-27T10:46:06.410Z,102081.19
2023-03-27T10:49:05.255Z,102087.00
2023-03-27T10:51:54.866Z,102092.06
2023-03-27T10:54:51.217Z,102099.63
2023-03-27T10:57:38.504Z,102094.38
2023-03-27T11:00:34.565Z,102125.03
2023-03-27T11:03:28.781Z,102138.72
2023-03-27T11:06:27.217Z,102143.53
2023-03-27T11:09:18.619Z,102144.28
2023-03-27T11:12:15.869Z,102143.09
2023-03-27T11:15:16.417Z,102156.06
2023-03-27T11:18:11.402Z,102159.66
2023-03-27T11:21:12.742Z,102162.16
2023-03-27T11:24:18.434Z,102165.81
2023-03-27T11:27:16.160Z,102177.56
2023-03-27T11:30:18.495Z,102178.75
2023-03-27T11:33:41.568Z,102207.41
2023-03-27T11:36:40.651Z,102205.06
2023-03-27T11:39:50.705Z,102208.94
2023-03-27T11:42:42.820Z,102216.28
2023-03-27T11:45:39.284Z,102211.09
2023-03-27T11:48:52.116Z,102215.03
2023-03-27T11:51:57.518Z,102203.94
2023-03-27T11:55:06.482Z,102216.75
2023-03-27T11:58:13.334Z,102219.00
2023-03-27T12:01:12.828Z,102214.91
2023-03-27T12:04:22.844Z,102224.16
2023-03-27T12:07:48.347Z,102229.53
2023-03-27T12:10:40.866Z,102225.50
2023-03-27T12:13:58.226Z,102223.97
2023-03-27T12:17:26.916Z,102227.78
2023-03-27T12:20:53.365Z,102221.03
2023-03-27T12:24:05.740Z,102228.88
2023-03-27T12:27:47.991Z,102236.81
2023-03-27T12:31:01.492Z,102234.31
2023-03-27T12:33:55.305Z,102243.03
2023-03-27T12:36:48.064Z,102257.00
2023-03-27T12:39:46.847Z,102253.88
2023-03-27T12:42:44.633Z,102272.75
2023-03-27T12:45:38.706Z,102263.75
2023-03-27T12:48:31.813Z,102253.34
2023-03-27T12:51:19.278Z,102245.94
2023-03-27T12:54:15.886Z,102240.38
2023-03-27T12:57:06.624Z,102240.78
2023-03-27T12:59:58.998Z,102238.38
2023-03-27T13:03:11.608Z,102246.00
2023-03-27T13:06:22.475Z,102253.19
2023-03-27T13:09:32.062Z,102239.75
2023-03-27T13:12:39.635Z,102238.34
2023-03-27T13:15:38.945Z,102244.34
2023-03-27T13:18:47.205Z,102249.78
2023-03-27T13:21:44.206Z,102250.59
2023-03-27T13:24:48.210Z,102272.81
2023-03-27T13:27:51.476Z,102271.22
2023-03-27T13:30:51.348Z,102263.56
2023-03-27T13:34:13.372Z,102257.69
2023-03-27T13:37:48.087Z,102267.28
2023-03-27T13:40:36.842Z,102261.28
2023-03-27T13:43:35.585Z,102263.19
2023-03-27T13:46:32.893Z,102263.63
2023-03-27T13:49:46.393Z,102273.16
2023-03-27T13:53:10.083Z,102272.91
2023-03-27T13:56:36.406Z,102271.25
2023-03-27T13:59:47.507Z,102281.19
2023-03-27T14:03:18.785Z,102281.31
2023-03-27T14:06:39.957Z,102285.09
2023-03-27T14:09:41.241Z,102287.41
2023-03-27T14:12:54.383Z,102287.31
2023-03-27T14:16:08.816Z,102291.38
2023-03-27T14:19:16.245Z,102283.75
2023-03-27T14:22:05.800Z,102286.00
2023-03-27T14:25:02.518Z,102281.09
2023-03-27T14:27:57.298Z,102286.69
2023-03-27T14:30:47.805Z,102289.38
2023-03-27T14:34:00.927Z,102279.38
2023-03-27T14:36:51.972Z,102284.66
2023-03-27T14:39:58.345Z,102279.50
2023-03-27T14:42:57.015Z,102290.78
2023-03-27T14:45:44.115Z,102303.75
2023-03-27T14:48:34.560Z,102305.69
2023-03-27T14:51:27.089Z,102318.91
2023-03-27T14:54:26.996Z,102309.66
2023-03-27T14:57:17.907Z,102312.91
2023-03-27T15:00:16.427Z,102321.81
2023-03-27T15:03:08.376Z,102321.09
2023-03-27T15:05:58.792Z,102317.16
2023-03-27T15:08:53.049Z,102313.53
2023-03-27T15:12:10.345Z,102321.69
2023-03-27T15:15:01.743Z,102326.19
2023-03-27T15:17:50.024Z,102325.56
2023-03-27T15:20:37.304Z,102320.28
2023-03-27T15:23:29.351Z,102339.75
2023-03-27T15:26:21.565Z,102337.03
2023-03-27T15:29:15.158Z,102345.78
2023-03-27T15:32:08.689Z,102326.97
2023-03-27T15:34:58.039Z,102343.81
2023-03-27T15:37:45.146Z,102365.97
2023-03-27T15:40:42.826Z,102371.81
2023-03-27T15:43:30.503Z,102374.81
2023-03-27T15:46:20.296Z,102382.88
2023-03-27T15:49:21.472Z,102380.91
2023-03-27T15:52:32.045Z,102372.81
2023-03-27T15:55:47.644Z,102385.50
2023-03-27T15:58:44.898Z,102373.00
2023-03-27T16:01:36.345Z,102373.03
2023-03-27T16:04:33.898Z,102371.41
2023-03-27T16:07:24.458Z,102383.66
2023-03-27T16:10:11.188Z,102375.66
2023-03-27T16:13:01.902Z,102378.06
2023-03-27T16:15:56.806Z,102385.31
2023-03-27T16:18:47.492Z,102396.81
2023-03-27T16:21:35.995Z,102400.75
2023-03-27T16:24:22.378Z,102400.19
2023-03-27T16:27:10.310Z,102401.66
2023-03-27T16:29:56.858Z,102402.66
2023-03-27T16:32:43.171Z,102402.97
2023-03-27T16:35:32.338Z,102400.22
2023-03-27T16:38:19.031Z,102416.97
2023-03-27T16:41:05.576Z,102396.88
2023-03-27T16:43:51.800Z,102417.28
2023-03-27T16:46:38.562Z,102420.94
2023-03-27T16:49:24.808Z,102413.50
2023-03-27T16:52:12.843Z,102420.81
2023-03-27T16:54:59.792Z,102425.22
2023-03-27T16:57:46.757Z,102428.78
2023-03-27T17:00:33.139Z,102429.72
2023-03-27T17:03:19.633Z,102432.81
2023-03-27T17:06:08.411Z,102432.06
2023-03-27T17:08:56.233Z,102428.75
2023-03-27T17:11:42.712Z,102434.09
2023-03-27T17:14:29.027Z,102436.81
2023-03-27T17:17:15.517Z,102431.63
2023-03-27T17:20:03.317Z,102448.84
2023-03-27T17:22:50.844Z,102456.16
2023-03-27T17:25:38.518Z,102455.06
2023-03-27T17:28:24.693Z,102461.28
2023-03-27T17:31:11.308Z,102447.44
2023-03-27T17:33:57.680Z,102447.13
2023-03-27T17:36:52.246Z,102458.75
2023-03-27T17:39:41.089Z,102459.00
2023-03-27T17:42:29.154Z,102460.22
2023-03-27T17:45:15.589Z,102469.09
2023-03-27T17:48:02.155Z,102464.06
2023-03-27T17:51:01.151Z,102462.84
2023-03-27T17:53:54.633Z,102472.75
2023-03-27T17:56:41.671Z,102461.34
2023-03-27T17:59:30.941Z,102477.38
2023-03-27T18:02:18.402Z,102482.28
2023-03-27T18:05:06.608Z,102472.81
2023-03-27T18:07:53.189Z,102469.31
2023-03-27T18:10:44.751Z,102480.00
2023-03-27T18:13:31.201Z,102489.34
2023-03-27T18:16:19.885Z,102482.53
2023-03-27T18:19:06.728Z,102487.19
2023-03-27T18:21:53.452Z,102497.53
2023-03-27T18:24:40.500Z,102492.31
2023-03-27T18:27:27.032Z,102499.47
2023-03-27T18:30:15.409Z,102511.72
2023-03-27T18:33:04.074Z,102506.34
2023-03-27T18:35:55.097Z,102511.03
2023-03-27T18:38:42.446Z,102505.88
2023-03-27T18:41:28.990Z,102511.50
2023-03-27T18:44:15.723Z,102513.75
2023-03-27T18:47:02.360Z,102507.53
2023-03-27T18:49:50.026Z,102509.72
2023-03-27T18:52:36.511Z,102514.03
2023-03-27T18:55:22.946Z,102512.47
2023-03-27T18:58:10.600Z,102517.19
2023-03-27T19:00:58.289Z,102520.03
2023-03-27T19:03:44.885Z,102515.94
2023-03-27T19:06:34.912Z,102519.25
2023-03-27T19:09:25.562Z,102523.28
2023-03-27T19:12:21.478Z,102518.13
2023-03-27T19:15:27.022Z,102510.13
2023-03-27T19:18:32.734Z,102511.03
2023-03-27T19:21:55.016Z,102521.88
2023-03-27T19:24:57.415Z,102511.78
2023-03-27T19:27:44.561Z,102513.50
2023-03-27T19:30:31.189Z,102506.28
2023-03-27T19:33:17.928Z,102499.63
2023-03-27T19:36:04.852Z,102497.69
2023-03-27T19:38:52.319Z,102496.41
2023-03-27T19:41:38.672Z,102484.28
2023-03-27T19:44:26.852Z,102483.66
2023-03-27T19:47:13.479Z,102485.03
2023-03-27T19:49:59.998Z,102468.50
2023-03-27T19:53:08.930Z,102471.53
2023-03-27T19:55:57.695Z,102479.16
2023-03-27T19:58:46.330Z,102478.06
2023-03-27T20:01:32.634Z,102471.38
2023-03-27T20:04:19.270Z,102476.25
2023-03-27T20:07:07.034Z,102466.66
2023-03-27T20:09:53.315Z,102476.16
2023-03-27T20:12:41.215Z,102481.97
2023-03-27T20:15:27.353Z,102486.50
2023-03-27T20:18:14.053Z,102476.91
2023-03-27T20:21:01.909Z,102481.81
2023-03-27T20:23:53.693Z,102484.28
2023-03-27T20:26:48.194Z,102482.38
2023-03-27T20:29:39.879Z,102485.22
2023-03-27T20:32:26.137Z,102486.59
2023-03-27T20:35:23.577Z,102490.31
2023-03-27T20:38:12.050Z,102484.16
2023-03-27T20:41:03.432Z,102482.63
2023-03-27T20:43:51.139Z,102483.16
2023-03-27T20:46:38.932Z,102490.06
2023-03-27T20:49:40.202Z,102480.81
2023-03-27T20:52:28.445Z,102475.19
2023-03-27T20:55:26.574Z,102485.97
2023-03-27T20:58:19.307Z,102484.00
2023-03-27T21:01:08.810Z,102482.66
2023-03-27T21:03:58.355Z,102480.38
2023-03-27T21:06:45.452Z,102486.47
2023-03-27T21:09:31.702Z,102480.03
2023-03-27T21:12:17.923Z,102477.16
2023-03-27T21:15:04.650Z,102481.47
2023-03-27T21:17:50.763Z,102486.53
2023-03-27T21:20:38.986Z,102485.09
2023-03-27T21:23:25.284Z,102489.31
2023-03-27T21:26:11.511Z,102487.91
2023-03-27T21:28:57.711Z,102487.00
2023-03-27T21:31:44.598Z,102492.75
2023-03-27T21:34:31.149Z,102483.75
2023-03-27T21:37:18.985Z,102491.50
2023-03-27T21:40:06.176Z,102479.75
2023-03-27T21:42:52.103Z,102492.09
2023-03-27T21:45:38.477Z,102487.19
2023-03-27T21:48:24.933Z,102490.38
2023-03-27T21:51:11.590Z,102492.53
2023-03-27T21:53:59.314Z,102498.84
2023-03-27T21:56:45.593Z,102489.47
2023-03-27T21:59:31.911Z,102484.03
2023-03-27T22:02:18.458Z,102483.88
2023-03-27T22:05:05.191Z,102479.56
2023-03-27T22:07:51.234Z,102489.31
2023-03-27T22:10:39.642Z,102489.31
2023-03-27T22:13:26.165Z,102493.91
2023-03-27T22:16:14.879Z,102490.56
2023-03-27T22:19:01.415Z,102496.28
2023-03-27T22:21:47.917Z,102499.63
2023-03-27T22:24:34.883Z,102500.03
2023-03-27T22:27:22.639Z,102495.31
2023-03-27T22:30:11.069Z,102509.75
2023-03-27T22:32:57.196Z,102517.97
2023-03-27T22:35:48.887Z,102514.06
2023-03-27T22:38:35.229Z,102517.19
2023-03-27T22:41:21.704Z,102525.81
2023-03-27T22:44:09.742Z,102521.78
2023-03-27T22:46:55.822Z,102526.78
2023-03-27T22:49:42.046Z,102513.84
2023-03-27T22:52:28.734Z,102517.47
2023-03-27T22:55:14.925Z,102521.38
2023-03-27T22:58:01.336Z,102527.03
2023-03-27T23:00:50.216Z,102517.03
2023-03-27T23:03:36.816Z,102521.38
2023-03-27T23:06:24.308Z,102527.31
2023-03-27T23:09:11.113Z,102520.22
2023-03-27T23:11:57.396Z,102523.78
2023-03-27T23:14:43.671Z,102531.31
2023-03-27T23:17:31.499Z,102528.25
2023-03-27T23:20:18.280Z,102530.66
2023-03-27T23:23:04.310Z,102529.13
2023-03-27T23:25:50.519Z,102531.41
2023-03-27T23:28:39.291Z,102527.22
2023-03-27T23:31:25.368Z,102529.53
2023-03-27T23:34:13.132Z,102523.72
2023-03-27T23:36:59.673Z,102521.03
2023-03-27T23:39:46.063Z,102524.38
2023-03-27T23:42:32.514Z,102521.13
2023-03-27T23:45:19.022Z,102529.72
2023-03-27T23:48:05.725Z,102524.38
2023-03-27T23:50:53.576Z,102524.00
2023-03-27T23:53:39.935Z,102524.28
2023-03-27T23:56:25.955Z,102520.63
2023-03-27T23:59:12.677Z,102521.22
